sensor_id;sensor_type;location;lat;lon;timestamp;P1;P2;P0
60374;PMS5003;70244;48.792;9.172;2024-01-30T05:17:33;10;8;
60374;PMS5003;70244;48.792;9.172;2024-01-30T05:28:39;7;5;
60374;PMS5003;70244;48.792;9.172;2024-01-30T05:31:09;6;6;
60374;PMS5003;70244;48.792;9.172;2024-01-30T05:33:40;4;4;
60374;PMS5003;70244;48.792;9.172;2024-01-30T05:36:11;5;5;
60374;PMS5003;70244;48.792;9.172;2024-01-30T05:38:41;4;4;
60374;PMS5003;70244;48.792;9.172;2024-01-30T05:41:11;4;4;
60374;PMS5003;70244;48.792;9.172;2024-01-30T05:43:42;4;4;
60374;PMS5003;70244;48.792;9.172;2024-01-30T05:46:13;5;5;
60374;PMS5003;70244;48.792;9.172;2024-01-30T05:48:44;7;4;
60374;PMS5003;70244;48.792;9.172;2024-01-30T05:51:15;6;4;
60374;PMS5003;70244;48.792;9.172;2024-01-30T05:53:45;8;6;
60374;PMS5003;70244;48.792;9.172;2024-01-30T05:56:16;4;4;
60374;PMS5003;70244;48.792;9.172;2024-01-30T05:58:47;7;6;
60374;PMS5003;70244;48.792;9.172;2024-01-30T06:01:18;7;6;
60374;PMS5003;70244;48.792;9.172;2024-01-30T06:03:48;8;7;
60374;PMS5003;70244;48.792;9.172;2024-01-30T06:06:19;11;8;
60374;PMS5003;70244;48.792;9.172;2024-01-30T06:08:50;7;7;
60374;PMS5003;70244;48.792;9.172;2024-01-30T06:11:20;7;7;
60374;PMS5003;70244;48.792;9.172;2024-01-30T06:13:51;11;11;
60374;PMS5003;70244;48.792;9.172;2024-01-30T06:16:22;12;11;
60374;PMS5003;70244;48.792;9.172;2024-01-30T06:18:52;9;9;
60374;PMS5003;70244;48.792;9.172;2024-01-30T06:21:23;11;9;
60374;PMS5003;70244;48.792;9.172;2024-01-30T06:23:54;8;8;
60374;PMS5003;70244;48.792;9.172;2024-01-30T06:26:25;11;11;
60374;PMS5003;70244;48.792;9.172;2024-01-30T06:28:55;7;7;
60374;PMS5003;70244;48.792;9.172;2024-01-30T06:31:26;10;7;
60374;PMS5003;70244;48.792;9.172;2024-01-30T06:33:56;9;8;
60374;PMS5003;70244;48.792;9.172;2024-01-30T06:36:27;11;9;
60374;PMS5003;70244;48.792;9.172;2024-01-30T06:38:58;9;9;
60374;PMS5003;70244;48.792;9.172;2024-01-30T06:41:28;9;9;
60374;PMS5003;70244;48.792;9.172;2024-01-30T06:43:59;8;7;
60374;PMS5003;70244;48.792;9.172;2024-01-30T06:46:30;8;8;
60374;PMS5003;70244;48.792;9.172;2024-01-30T06:49:00;9;8;
60374;PMS5003;70244;48.792;9.172;2024-01-30T06:51:31;10;8;
60374;PMS5003;70244;48.792;9.172;2024-01-30T06:54:01;7;7;
60374;PMS5003;70244;48.792;9.172;2024-01-30T06:56:32;8;8;
60374;PMS5003;70244;48.792;9.172;2024-01-30T06:59:02;12;11;
60374;PMS5003;70244;48.792;9.172;2024-01-30T07:01:33;11;10;
60374;PMS5003;70244;48.792;9.172;2024-01-30T07:04:03;10;10;
60374;PMS5003;70244;48.792;9.172;2024-01-30T07:06:33;12;8;
60374;PMS5003;70244;48.792;9.172;2024-01-30T07:09:04;10;9;
60374;PMS5003;70244;48.792;9.172;2024-01-30T07:11:34;8;8;
60374;PMS5003;70244;48.792;9.172;2024-01-30T07:14:05;11;10;
60374;PMS5003;70244;48.792;9.172;2024-01-30T07:16:36;10;8;
60374;PMS5003;70244;48.792;9.172;2024-01-30T07:19:06;8;8;
60374;PMS5003;70244;48.792;9.172;2024-01-30T07:21:37;9;9;
60374;PMS5003;70244;48.792;9.172;2024-01-30T07:24:08;10;8;
60374;PMS5003;70244;48.792;9.172;2024-01-30T07:26:38;8;7;
60374;PMS5003;70244;48.792;9.172;2024-01-30T07:29:09;10;10;
60374;PMS5003;70244;48.792;9.172;2024-01-30T07:31:40;10;10;
60374;PMS5003;70244;48.792;9.172;2024-01-30T07:34:11;13;11;
60374;PMS5003;70244;48.792;9.172;2024-01-30T07:36:41;8;8;
60374;PMS5003;70244;48.792;9.172;2024-01-30T07:39:12;9;9;
60374;PMS5003;70244;48.792;9.172;2024-01-30T07:41:42;10;10;
60374;PMS5003;70244;48.792;9.172;2024-01-30T07:44:13;10;10;
60374;PMS5003;70244;48.792;9.172;2024-01-30T07:46:43;8;8;
60374;PMS5003;70244;48.792;9.172;2024-01-30T07:49:14;9;9;
60374;PMS5003;70244;48.792;9.172;2024-01-30T07:51:45;10;7;
60374;PMS5003;70244;48.792;9.172;2024-01-30T07:54:15;9;9;
60374;PMS5003;70244;48.792;9.172;2024-01-30T07:56:46;7;7;
60374;PMS5003;70244;48.792;9.172;2024-01-30T07:59:17;10;9;
60374;PMS5003;70244;48.792;9.172;2024-01-30T08:01:47;9;7;
60374;PMS5003;70244;48.792;9.172;2024-01-30T08:04:17;8;8;
60374;PMS5003;70244;48.792;9.172;2024-01-30T08:06:48;8;6;
60374;PMS5003;70244;48.792;9.172;2024-01-30T08:09:18;9;8;
60374;PMS5003;70244;48.792;9.172;2024-01-30T08:11:49;12;8;
60374;PMS5003;70244;48.792;9.172;2024-01-30T08:14:20;10;10;
60374;PMS5003;70244;48.792;9.172;2024-01-30T08:16:51;6;6;
60374;PMS5003;70244;48.792;9.172;2024-01-30T08:19:21;11;11;
60374;PMS5003;70244;48.792;9.172;2024-01-30T08:21:52;8;8;
60374;PMS5003;70244;48.792;9.172;2024-01-30T08:24:23;10;8;
60374;PMS5003;70244;48.792;9.172;2024-01-30T08:26:54;9;9;
60374;PMS5003;70244;48.792;9.172;2024-01-30T08:29:25;9;8;
60374;PMS5003;70244;48.792;9.172;2024-01-30T08:31:55;9;9;
60374;PMS5003;70244;48.792;9.172;2024-01-30T08:34:26;8;7;
60374;PMS5003;70244;48.792;9.172;2024-01-30T08:36:57;8;8;
60374;PMS5003;70244;48.792;9.172;2024-01-30T08:39:27;9;7;
60374;PMS5003;70244;48.792;9.172;2024-01-30T08:41:58;9;9;
60374;PMS5003;70244;48.792;9.172;2024-01-30T08:44:29;9;9;
60374;PMS5003;70244;48.792;9.172;2024-01-30T08:46:59;6;6;
60374;PMS5003;70244;48.792;9.172;2024-01-30T08:49:30;9;8;
60374;PMS5003;70244;48.792;9.172;2024-01-30T08:52:00;8;8;
60374;PMS5003;70244;48.792;9.172;2024-01-30T08:54:31;9;7;
60374;PMS5003;70244;48.792;9.172;2024-01-30T08:57:02;10;7;
60374;PMS5003;70244;48.792;9.172;2024-01-30T08:59:33;9;9;
60374;PMS5003;70244;48.792;9.172;2024-01-30T09:02:03;9;9;
60374;PMS5003;70244;48.792;9.172;2024-01-30T09:04:34;7;7;
60374;PMS5003;70244;48.792;9.172;2024-01-30T09:07:05;8;7;
60374;PMS5003;70244;48.792;9.172;2024-01-30T09:09:35;9;8;
60374;PMS5003;70244;48.792;9.172;2024-01-30T09:12:06;9;8;
60374;PMS5003;70244;48.792;9.172;2024-01-30T09:14:37;8;6;
60374;PMS5003;70244;48.792;9.172;2024-01-30T09:17:07;8;8;
60374;PMS5003;70244;48.792;9.172;2024-01-30T09:19:38;10;8;
60374;PMS5003;70244;48.792;9.172;2024-01-30T09:22:09;8;6;
60374;PMS5003;70244;48.792;9.172;2024-01-30T09:24:40;10;9;
60374;PMS5003;70244;48.792;9.172;2024-01-30T09:27:10;8;7;
60374;PMS5003;70244;48.792;9.172;2024-01-30T09:29:41;7;7;
60374;PMS5003;70244;48.792;9.172;2024-01-30T09:32:12;7;7;
60374;PMS5003;70244;48.792;9.172;2024-01-30T09:34:42;7;7;
60374;PMS5003;70244;48.792;9.172;2024-01-30T09:37:13;6;6;
60374;PMS5003;70244;48.792;9.172;2024-01-30T09:39:44;9;7;
60374;PMS5003;70244;48.792;9.172;2024-01-30T09:42:18;6;6;
60374;PMS5003;70244;48.792;9.172;2024-01-30T09:44:45;6;6;
60374;PMS5003;70244;48.792;9.172;2024-01-30T09:47:16;12;8;
60374;PMS5003;70244;48.792;9.172;2024-01-30T09:49:47;8;8;
60374;PMS5003;70244;48.792;9.172;2024-01-30T09:52:18;8;8;
60374;PMS5003;70244;48.792;9.172;2024-01-30T09:54:49;9;6;
60374;PMS5003;70244;48.792;9.172;2024-01-30T09:57:19;10;8;
60374;PMS5003;70244;48.792;9.172;2024-01-30T09:59:50;8;7;
60374;PMS5003;70244;48.792;9.172;2024-01-30T10:02:21;5;5;
60374;PMS5003;70244;48.792;9.172;2024-01-30T10:04:51;8;8;
60374;PMS5003;70244;48.792;9.172;2024-01-30T10:07:22;7;7;
60374;PMS5003;70244;48.792;9.172;2024-01-30T10:09:53;8;7;
60374;PMS5003;70244;48.792;9.172;2024-01-30T10:12:25;6;6;
60374;PMS5003;70244;48.792;9.172;2024-01-30T10:14:55;7;7;
60374;PMS5003;70244;48.792;9.172;2024-01-30T10:17:25;9;9;
60374;PMS5003;70244;48.792;9.172;2024-01-30T10:19:56;8;5;
60374;PMS5003;70244;48.792;9.172;2024-01-30T10:22:26;6;6;
60374;PMS5003;70244;48.792;9.172;2024-01-30T10:24:57;6;6;
60374;PMS5003;70244;48.792;9.172;2024-01-30T10:27:28;10;8;
60374;PMS5003;70244;48.792;9.172;2024-01-30T10:29:58;7;7;
60374;PMS5003;70244;48.792;9.172;2024-01-30T10:32:29;9;9;
60374;PMS5003;70244;48.792;9.172;2024-01-30T10:34:59;9;9;
60374;PMS5003;70244;48.792;9.172;2024-01-30T10:37:30;7;7;
60374;PMS5003;70244;48.792;9.172;2024-01-30T10:40:02;7;7;
60374;PMS5003;70244;48.792;9.172;2024-01-30T10:42:32;9;9;
60374;PMS5003;70244;48.792;9.172;2024-01-30T10:45:05;7;7;
60374;PMS5003;70244;48.792;9.172;2024-01-30T10:47:34;10;8;
60374;PMS5003;70244;48.792;9.172;2024-01-30T10:50:04;8;8;
60374;PMS5003;70244;48.792;9.172;2024-01-30T10:52:34;6;6;
60374;PMS5003;70244;48.792;9.172;2024-01-30T10:55:05;8;8;
60374;PMS5003;70244;48.792;9.172;2024-01-30T10:57:36;8;7;
60374;PMS5003;70244;48.792;9.172;2024-01-30T11:00:07;7;7;
60374;PMS5003;70244;48.792;9.172;2024-01-30T11:02:38;9;7;
60374;PMS5003;70244;48.792;9.172;2024-01-30T11:05:08;9;9;
60374;PMS5003;70244;48.792;9.172;2024-01-30T11:07:39;9;7;
60374;PMS5003;70244;48.792;9.172;2024-01-30T11:10:09;6;6;
60374;PMS5003;70244;48.792;9.172;2024-01-30T11:12:40;8;8;
60374;PMS5003;70244;48.792;9.172;2024-01-30T11:15:12;7;6;
60374;PMS5003;70244;48.792;9.172;2024-01-30T11:17:42;7;7;
60374;PMS5003;70244;48.792;9.172;2024-01-30T11:20:14;8;8;
60374;PMS5003;70244;48.792;9.172;2024-01-30T11:22:44;7;6;
60374;PMS5003;70244;48.792;9.172;2024-01-30T11:25:14;7;7;
60374;PMS5003;70244;48.792;9.172;2024-01-30T11:27:44;6;6;
60374;PMS5003;70244;48.792;9.172;2024-01-30T11:32:46;6;6;
60374;PMS5003;70244;48.792;9.172;2024-01-30T11:35:16;6;6;
60374;PMS5003;70244;48.792;9.172;2024-01-30T11:37:47;7;7;
60374;PMS5003;70244;48.792;9.172;2024-01-30T11:40:18;7;7;
60374;PMS5003;70244;48.792;9.172;2024-01-30T11:42:49;9;8;
60374;PMS5003;70244;48.792;9.172;2024-01-30T11:45:19;9;8;
60374;PMS5003;70244;48.792;9.172;2024-01-30T11:47:50;5;5;
60374;PMS5003;70244;48.792;9.172;2024-01-30T11:50:21;8;8;
60374;PMS5003;70244;48.792;9.172;2024-01-30T11:52:51;8;8;
60374;PMS5003;70244;48.792;9.172;2024-01-30T11:55:23;8;8;
60374;PMS5003;70244;48.792;9.172;2024-01-30T11:57:54;9;9;
60374;PMS5003;70244;48.792;9.172;2024-01-30T12:00:23;5;5;
60374;PMS5003;70244;48.792;9.172;2024-01-30T12:02:54;7;6;
60374;PMS5003;70244;48.792;9.172;2024-01-30T12:05:24;8;6;
60374;PMS5003;70244;48.792;9.172;2024-01-30T12:07:54;9;8;
60374;PMS5003;70244;48.792;9.172;2024-01-30T12:10:25;6;6;
60374;PMS5003;70244;48.792;9.172;2024-01-30T12:12:56;8;8;
60374;PMS5003;70244;48.792;9.172;2024-01-30T12:15:26;7;7;
60374;PMS5003;70244;48.792;9.172;2024-01-30T12:20:28;8;8;
60374;PMS5003;70244;48.792;9.172;2024-01-30T12:22:59;9;8;
60374;PMS5003;70244;48.792;9.172;2024-01-30T12:25:29;5;5;
60374;PMS5003;70244;48.792;9.172;2024-01-30T12:28:00;9;9;
60374;PMS5003;70244;48.792;9.172;2024-01-30T12:30:31;6;6;
60374;PMS5003;70244;48.792;9.172;2024-01-30T12:33:01;6;6;
60374;PMS5003;70244;48.792;9.172;2024-01-30T12:35:32;8;8;
60374;PMS5003;70244;48.792;9.172;2024-01-30T12:38:03;10;9;
60374;PMS5003;70244;48.792;9.172;2024-01-30T12:40:34;6;6;
60374;PMS5003;70244;48.792;9.172;2024-01-30T12:43:04;6;6;
60374;PMS5003;70244;48.792;9.172;2024-01-30T12:45:35;7;7;
60374;PMS5003;70244;48.792;9.172;2024-01-30T12:48:06;9;8;
60374;PMS5003;70244;48.792;9.172;2024-01-30T12:50:37;7;6;
60374;PMS5003;70244;48.792;9.172;2024-01-30T12:53:07;4;4;
60374;PMS5003;70244;48.792;9.172;2024-01-30T12:55:38;8;8;
60374;PMS5003;70244;48.792;9.172;2024-01-30T12:58:09;6;6;
60374;PMS5003;70244;48.792;9.172;2024-01-30T13:00:39;6;6;
60374;PMS5003;70244;48.792;9.172;2024-01-30T13:03:10;8;8;
60374;PMS5003;70244;48.792;9.172;2024-01-30T13:05:41;6;6;
60374;PMS5003;70244;48.792;9.172;2024-01-30T13:08:11;10;8;
60374;PMS5003;70244;48.792;9.172;2024-01-30T13:10:42;11;8;
60374;PMS5003;70244;48.792;9.172;2024-01-30T13:13:13;7;5;
60374;PMS5003;70244;48.792;9.172;2024-01-30T13:15:43;5;5;
60374;PMS5003;70244;48.792;9.172;2024-01-30T13:18:14;7;7;
60374;PMS5003;70244;48.792;9.172;2024-01-30T13:20:45;8;8;
60374;PMS5003;70244;48.792;9.172;2024-01-30T13:23:15;9;7;
60374;PMS5003;70244;48.792;9.172;2024-01-30T13:25:46;6;5;
60374;PMS5003;70244;48.792;9.172;2024-01-30T13:28:17;9;7;
60374;PMS5003;70244;48.792;9.172;2024-01-30T13:30:48;6;6;
60374;PMS5003;70244;48.792;9.172;2024-01-30T13:33:18;8;8;
60374;PMS5003;70244;48.792;9.172;2024-01-30T13:35:49;5;5;
60374;PMS5003;70244;48.792;9.172;2024-01-30T13:38:20;6;5;
60374;PMS5003;70244;48.792;9.172;2024-01-30T13:40:50;6;6;
60374;PMS5003;70244;48.792;9.172;2024-01-30T13:43:21;5;4;
60374;PMS5003;70244;48.792;9.172;2024-01-30T13:45:52;4;4;
60374;PMS5003;70244;48.792;9.172;2024-01-30T13:48:22;7;7;
60374;PMS5003;70244;48.792;9.172;2024-01-30T13:50:53;5;5;
60374;PMS5003;70244;48.792;9.172;2024-01-30T13:53:24;8;7;
60374;PMS5003;70244;48.792;9.172;2024-01-30T13:55:54;6;6;
60374;PMS5003;70244;48.792;9.172;2024-01-30T13:58:25;7;5;
60374;PMS5003;70244;48.792;9.172;2024-01-30T14:00:56;9;8;
60374;PMS5003;70244;48.792;9.172;2024-01-30T14:03:26;7;7;
60374;PMS5003;70244;48.792;9.172;2024-01-30T14:05:57;7;5;
60374;PMS5003;70244;48.792;9.172;2024-01-30T14:08:28;7;6;
60374;PMS5003;70244;48.792;9.172;2024-01-30T14:10:59;6;5;
60374;PMS5003;70244;48.792;9.172;2024-01-30T14:13:29;8;7;
60374;PMS5003;70244;48.792;9.172;2024-01-30T14:16:00;6;6;
60374;PMS5003;70244;48.792;9.172;2024-01-30T14:18:31;5;5;
60374;PMS5003;70244;48.792;9.172;2024-01-30T14:21:02;6;6;
60374;PMS5003;70244;48.792;9.172;2024-01-30T14:23:32;9;7;
60374;PMS5003;70244;48.792;9.172;2024-01-30T14:26:03;6;6;
60374;PMS5003;70244;48.792;9.172;2024-01-30T14:28:34;7;7;
60374;PMS5003;70244;48.792;9.172;2024-01-30T14:31:04;5;5;
60374;PMS5003;70244;48.792;9.172;2024-01-30T14:33:35;8;7;
60374;PMS5003;70244;48.792;9.172;2024-01-30T14:36:06;5;5;
60374;PMS5003;70244;48.792;9.172;2024-01-30T14:38:36;5;5;
60374;PMS5003;70244;48.792;9.172;2024-01-30T14:41:07;7;7;
60374;PMS5003;70244;48.792;9.172;2024-01-30T14:43:38;9;7;
60374;PMS5003;70244;48.792;9.172;2024-01-30T14:46:09;10;6;
60374;PMS5003;70244;48.792;9.172;2024-01-30T14:48:39;6;6;
60374;PMS5003;70244;48.792;9.172;2024-01-30T14:51:10;7;7;
60374;PMS5003;70244;48.792;9.172;2024-01-30T14:53:41;7;6;
60374;PMS5003;70244;48.792;9.172;2024-01-30T14:56:12;5;5;
60374;PMS5003;70244;48.792;9.172;2024-01-30T14:58:42;8;8;
60374;PMS5003;70244;48.792;9.172;2024-01-30T15:01:13;5;5;
60374;PMS5003;70244;48.792;9.172;2024-01-30T15:03:44;7;7;
60374;PMS5003;70244;48.792;9.172;2024-01-30T15:06:15;5;5;
60374;PMS5003;70244;48.792;9.172;2024-01-30T15:08:46;5;5;
60374;PMS5003;70244;48.792;9.172;2024-01-30T15:11:16;8;6;
60374;PMS5003;70244;48.792;9.172;2024-01-30T15:13:47;6;6;
60374;PMS5003;70244;48.792;9.172;2024-01-30T15:16:18;9;8;
60374;PMS5003;70244;48.792;9.172;2024-01-30T15:18:49;8;7;
60374;PMS5003;70244;48.792;9.172;2024-01-30T15:21:19;7;6;
60374;PMS5003;70244;48.792;9.172;2024-01-30T15:23:50;7;7;
60374;PMS5003;70244;48.792;9.172;2024-01-30T15:26:21;8;7;
60374;PMS5003;70244;48.792;9.172;2024-01-30T15:28:52;7;4;
60374;PMS5003;70244;48.792;9.172;2024-01-30T15:31:22;4;4;
60374;PMS5003;70244;48.792;9.172;2024-01-30T15:33:53;6;6;
60374;PMS5003;70244;48.792;9.172;2024-01-30T15:36:24;5;5;
60374;PMS5003;70244;48.792;9.172;2024-01-30T15:38:55;7;6;
60374;PMS5003;70244;48.792;9.172;2024-01-30T15:41:25;10;8;
60374;PMS5003;70244;48.792;9.172;2024-01-30T15:43:56;9;8;
60374;PMS5003;70244;48.792;9.172;2024-01-30T15:46:26;7;5;
60374;PMS5003;70244;48.792;9.172;2024-01-30T15:48:57;7;7;
60374;PMS5003;70244;48.792;9.172;2024-01-30T15:51:28;7;5;
60374;PMS5003;70244;48.792;9.172;2024-01-30T15:53:59;6;6;
60374;PMS5003;70244;48.792;9.172;2024-01-30T15:56:29;9;8;
60374;PMS5003;70244;48.792;9.172;2024-01-30T15:59:00;5;5;
60374;PMS5003;70244;48.792;9.172;2024-01-30T16:01:31;5;5;
60374;PMS5003;70244;48.792;9.172;2024-01-30T16:04:02;6;6;
60374;PMS5003;70244;48.792;9.172;2024-01-30T16:06:32;6;6;
60374;PMS5003;70244;48.792;9.172;2024-01-30T16:09:03;6;6;
60374;PMS5003;70244;48.792;9.172;2024-01-30T16:11:35;6;4;
60374;PMS5003;70244;48.792;9.172;2024-01-30T16:14:05;9;7;
60374;PMS5003;70244;48.792;9.172;2024-01-30T16:16:36;10;9;
60374;PMS5003;70244;48.792;9.172;2024-01-30T16:19:06;14;14;
60374;PMS5003;70244;48.792;9.172;2024-01-30T16:21:37;11;11;
60374;PMS5003;70244;48.792;9.172;2024-01-30T16:24:08;11;10;
60374;PMS5003;70244;48.792;9.172;2024-01-30T16:26:38;11;11;
60374;PMS5003;70244;48.792;9.172;2024-01-30T16:29:08;12;11;
60374;PMS5003;70244;48.792;9.172;2024-01-30T16:31:39;12;11;
60374;PMS5003;70244;48.792;9.172;2024-01-30T16:34:10;11;10;
60374;PMS5003;70244;48.792;9.172;2024-01-30T16:36:40;11;11;
60374;PMS5003;70244;48.792;9.172;2024-01-30T16:39:11;12;12;
60374;PMS5003;70244;48.792;9.172;2024-01-30T16:41:41;9;9;
60374;PMS5003;70244;48.792;9.172;2024-01-30T16:44:11;10;8;
60374;PMS5003;70244;48.792;9.172;2024-01-30T16:46:42;12;9;
60374;PMS5003;70244;48.792;9.172;2024-01-30T16:49:13;8;8;
60374;PMS5003;70244;48.792;9.172;2024-01-30T16:51:43;9;9;
60374;PMS5003;70244;48.792;9.172;2024-01-30T16:54:14;11;11;
60374;PMS5003;70244;48.792;9.172;2024-01-30T16:56:45;10;10;
60374;PMS5003;70244;48.792;9.172;2024-01-30T16:59:15;12;11;
60374;PMS5003;70244;48.792;9.172;2024-01-30T17:01:46;9;9;
60374;PMS5003;70244;48.792;9.172;2024-01-30T17:04:17;9;9;
60374;PMS5003;70244;48.792;9.172;2024-01-30T17:06:47;12;11;
60374;PMS5003;70244;48.792;9.172;2024-01-30T17:09:18;16;15;
60374;PMS5003;70244;48.792;9.172;2024-01-30T17:11:49;11;9;
60374;PMS5003;70244;48.792;9.172;2024-01-30T17:14:19;9;7;
60374;PMS5003;70244;48.792;9.172;2024-01-30T17:16:50;12;9;
60374;PMS5003;70244;48.792;9.172;2024-01-30T17:19:21;14;11;
60374;PMS5003;70244;48.792;9.172;2024-01-30T17:21:51;10;9;
60374;PMS5003;70244;48.792;9.172;2024-01-30T17:24:21;8;8;
60374;PMS5003;70244;48.792;9.172;2024-01-30T17:26:52;8;8;
60374;PMS5003;70244;48.792;9.172;2024-01-30T17:29:22;13;10;
60374;PMS5003;70244;48.792;9.172;2024-01-30T17:31:53;10;10;
60374;PMS5003;70244;48.792;9.172;2024-01-30T17:34:24;16;13;
60374;PMS5003;70244;48.792;9.172;2024-01-30T17:36:54;13;11;
60374;PMS5003;70244;48.792;9.172;2024-01-30T17:39:24;10;9;
60374;PMS5003;70244;48.792;9.172;2024-01-30T17:41:55;20;17;
60374;PMS5003;70244;48.792;9.172;2024-01-30T17:44:25;24;21;
60374;PMS5003;70244;48.792;9.172;2024-01-30T17:46:56;18;16;
60374;PMS5003;70244;48.792;9.172;2024-01-30T17:49:26;17;14;
60374;PMS5003;70244;48.792;9.172;2024-01-30T17:51:57;21;21;
60374;PMS5003;70244;48.792;9.172;2024-01-30T17:54:27;29;26;
60374;PMS5003;70244;48.792;9.172;2024-01-30T17:56:58;21;18;
60374;PMS5003;70244;48.792;9.172;2024-01-30T17:59:28;12;10;
60374;PMS5003;70244;48.792;9.172;2024-01-30T18:01:59;14;12;
60374;PMS5003;70244;48.792;9.172;2024-01-30T18:04:29;14;12;
60374;PMS5003;70244;48.792;9.172;2024-01-30T18:06:59;15;11;
60374;PMS5003;70244;48.792;9.172;2024-01-30T18:09:29;10;10;
60374;PMS5003;70244;48.792;9.172;2024-01-30T18:12:00;13;13;
60374;PMS5003;70244;48.792;9.172;2024-01-30T18:14:30;11;11;
60374;PMS5003;70244;48.792;9.172;2024-01-30T18:17:01;15;15;
60374;PMS5003;70244;48.792;9.172;2024-01-30T18:19:31;10;9;
60374;PMS5003;70244;48.792;9.172;2024-01-30T18:22:02;9;9;
60374;PMS5003;70244;48.792;9.172;2024-01-30T18:24:32;12;11;
60374;PMS5003;70244;48.792;9.172;2024-01-30T18:27:03;9;8;
60374;PMS5003;70244;48.792;9.172;2024-01-30T18:29:34;9;8;
60374;PMS5003;70244;48.792;9.172;2024-01-30T18:32:04;13;13;
60374;PMS5003;70244;48.792;9.172;2024-01-30T18:34:34;15;12;
60374;PMS5003;70244;48.792;9.172;2024-01-30T18:37:05;10;10;
60374;PMS5003;70244;48.792;9.172;2024-01-30T18:39:35;13;12;
60374;PMS5003;70244;48.792;9.172;2024-01-30T18:42:06;10;10;
60374;PMS5003;70244;48.792;9.172;2024-01-30T18:44:36;12;11;
60374;PMS5003;70244;48.792;9.172;2024-01-30T18:47:06;12;11;
60374;PMS5003;70244;48.792;9.172;2024-01-30T18:49:37;9;9;
60374;PMS5003;70244;48.792;9.172;2024-01-30T18:52:08;11;11;
60374;PMS5003;70244;48.792;9.172;2024-01-30T18:54:38;8;8;
60374;PMS5003;70244;48.792;9.172;2024-01-30T18:57:09;11;10;
60374;PMS5003;70244;48.792;9.172;2024-01-30T18:59:40;10;10;
60374;PMS5003;70244;48.792;9.172;2024-01-30T19:02:10;11;9;
60374;PMS5003;70244;48.792;9.172;2024-01-30T19:04:41;13;12;
60374;PMS5003;70244;48.792;9.172;2024-01-30T19:07:12;11;9;
60374;PMS5003;70244;48.792;9.172;2024-01-30T19:09:42;10;8;
60374;PMS5003;70244;48.792;9.172;2024-01-30T19:12:12;9;9;
60374;PMS5003;70244;48.792;9.172;2024-01-30T19:14:42;9;9;
60374;PMS5003;70244;48.792;9.172;2024-01-30T19:17:13;13;11;
60374;PMS5003;70244;48.792;9.172;2024-01-30T19:19:44;8;8;
60374;PMS5003;70244;48.792;9.172;2024-01-30T19:22:14;12;11;
60374;PMS5003;70244;48.792;9.172;2024-01-30T19:24:44;11;11;
60374;PMS5003;70244;48.792;9.172;2024-01-30T19:27:15;10;10;
60374;PMS5003;70244;48.792;9.172;2024-01-30T19:29:46;11;10;
60374;PMS5003;70244;48.792;9.172;2024-01-30T19:32:17;12;12;
60374;PMS5003;70244;48.792;9.172;2024-01-30T19:34:47;13;13;
60374;PMS5003;70244;48.792;9.172;2024-01-30T19:37:18;13;10;
60374;PMS5003;70244;48.792;9.172;2024-01-30T19:39:49;10;10;
60374;PMS5003;70244;48.792;9.172;2024-01-30T19:42:19;10;9;
60374;PMS5003;70244;48.792;9.172;2024-01-30T19:44:50;10;9;
60374;PMS5003;70244;48.792;9.172;2024-01-30T19:47:20;9;7;
60374;PMS5003;70244;48.792;9.172;2024-01-30T19:49:51;11;9;
60374;PMS5003;70244;48.792;9.172;2024-01-30T19:52:21;10;9;
60374;PMS5003;70244;48.792;9.172;2024-01-30T19:54:52;14;11;
60374;PMS5003;70244;48.792;9.172;2024-01-30T19:57:23;12;9;
60374;PMS5003;70244;48.792;9.172;2024-01-30T19:59:53;11;8;
60374;PMS5003;70244;48.792;9.172;2024-01-30T20:02:23;8;6;
60374;PMS5003;70244;48.792;9.172;2024-01-30T20:04:54;8;7;
60374;PMS5003;70244;48.792;9.172;2024-01-30T20:07:24;9;9;
60374;PMS5003;70244;48.792;9.172;2024-01-30T20:09:55;8;8;
60374;PMS5003;70244;48.792;9.172;2024-01-30T20:12:25;7;7;
60374;PMS5003;70244;48.792;9.172;2024-01-30T20:14:56;9;8;
60374;PMS5003;70244;48.792;9.172;2024-01-30T20:17:27;8;7;
60374;PMS5003;70244;48.792;9.172;2024-01-30T20:19:57;11;9;
60374;PMS5003;70244;48.792;9.172;2024-01-30T20:22:28;9;8;
60374;PMS5003;70244;48.792;9.172;2024-01-30T20:24:59;7;7;
60374;PMS5003;70244;48.792;9.172;2024-01-30T20:27:30;8;8;
60374;PMS5003;70244;48.792;9.172;2024-01-30T20:30:00;10;10;
60374;PMS5003;70244;48.792;9.172;2024-01-30T20:32:31;9;8;
60374;PMS5003;70244;48.792;9.172;2024-01-30T20:35:02;11;11;
60374;PMS5003;70244;48.792;9.172;2024-01-30T20:37:33;9;7;
60374;PMS5003;70244;48.792;9.172;2024-01-30T20:40:03;10;9;
60374;PMS5003;70244;48.792;9.172;2024-01-30T20:42:34;7;6;
60374;PMS5003;70244;48.792;9.172;2024-01-30T20:45:05;10;9;
60374;PMS5003;70244;48.792;9.172;2024-01-30T20:47:35;10;10;
60374;PMS5003;70244;48.792;9.172;2024-01-30T20:50:06;9;8;
60374;PMS5003;70244;48.792;9.172;2024-01-30T20:52:37;7;7;
60374;PMS5003;70244;48.792;9.172;2024-01-30T20:55:07;11;11;
60374;PMS5003;70244;48.792;9.172;2024-01-30T20:57:38;10;10;
60374;PMS5003;70244;48.792;9.172;2024-01-30T21:00:08;8;8;
60374;PMS5003;70244;48.792;9.172;2024-01-30T21:02:39;11;6;
60374;PMS5003;70244;48.792;9.172;2024-01-30T21:05:09;9;9;
60374;PMS5003;70244;48.792;9.172;2024-01-30T21:07:40;9;9;
60374;PMS5003;70244;48.792;9.172;2024-01-30T21:10:10;9;7;
60374;PMS5003;70244;48.792;9.172;2024-01-30T21:12:41;9;6;
60374;PMS5003;70244;48.792;9.172;2024-01-30T21:15:12;8;7;
60374;PMS5003;70244;48.792;9.172;2024-01-30T21:17:43;11;9;
60374;PMS5003;70244;48.792;9.172;2024-01-30T21:20:13;7;7;
60374;PMS5003;70244;48.792;9.172;2024-01-30T21:22:44;9;7;
60374;PMS5003;70244;48.792;9.172;2024-01-30T21:25:14;11;11;
60374;PMS5003;70244;48.792;9.172;2024-01-30T21:27:44;11;10;
60374;PMS5003;70244;48.792;9.172;2024-01-30T21:30:14;9;8;
60374;PMS5003;70244;48.792;9.172;2024-01-30T21:32:45;9;9;
60374;PMS5003;70244;48.792;9.172;2024-01-30T21:35:16;8;7;
60374;PMS5003;70244;48.792;9.172;2024-01-30T21:37:46;9;7;
60374;PMS5003;70244;48.792;9.172;2024-01-30T21:40:17;8;6;
60374;PMS5003;70244;48.792;9.172;2024-01-30T21:42:48;10;8;
60374;PMS5003;70244;48.792;9.172;2024-01-30T21:45:18;9;7;
60374;PMS5003;70244;48.792;9.172;2024-01-30T21:47:49;10;9;
60374;PMS5003;70244;48.792;9.172;2024-01-30T21:50:20;7;7;
60374;PMS5003;70244;48.792;9.172;2024-01-30T21:52:50;8;8;
60374;PMS5003;70244;48.792;9.172;2024-01-30T21:55:21;9;8;
60374;PMS5003;70244;48.792;9.172;2024-01-30T21:57:52;8;8;
60374;PMS5003;70244;48.792;9.172;2024-01-30T22:00:22;7;7;
60374;PMS5003;70244;48.792;9.172;2024-01-30T22:02:53;6;6;
60374;PMS5003;70244;48.792;9.172;2024-01-30T22:05:23;7;7;
60374;PMS5003;70244;48.792;9.172;2024-01-30T22:07:54;10;8;
60374;PMS5003;70244;48.792;9.172;2024-01-30T22:10:25;9;9;
60374;PMS5003;70244;48.792;9.172;2024-01-30T22:12:56;11;10;
60374;PMS5003;70244;48.792;9.172;2024-01-30T22:15:26;12;9;
60374;PMS5003;70244;48.792;9.172;2024-01-30T22:17:57;12;9;
60374;PMS5003;70244;48.792;9.172;2024-01-30T22:20:28;9;9;
60374;PMS5003;70244;48.792;9.172;2024-01-30T22:22:58;15;12;
60374;PMS5003;70244;48.792;9.172;2024-01-30T22:25:28;11;11;
60374;PMS5003;70244;48.792;9.172;2024-01-30T22:27:59;10;10;
60374;PMS5003;70244;48.792;9.172;2024-01-30T22:30:29;11;10;
60374;PMS5003;70244;48.792;9.172;2024-01-30T22:33:00;12;9;
60374;PMS5003;70244;48.792;9.172;2024-01-30T22:35:30;12;12;